AirNav   Duncan Aviation - Near you to keep you flying
 
 492 users online  

CA07 Scheidel Ranch Airport
Pleasant Grove, California, USA

GOING TO PLEASANT GROVE?


FAA INFORMATION EFFECTIVE 03 NOVEMBER 2022

Location

FAA Identifier: CA07
Lat/Long: 38-50-24.6360N 121-33-41.8540W
38-50.410600N 121-33.697567W
38.8401767,-121.5616261
(estimated)
Elevation: 28 ft. / 9 m (estimated)
Variation: 16E (1985)
From city: 4 miles W of PLEASANT GROVE, CA
Time zone: UTC -8 (UTC -7 during Daylight Saving Time)
Zip code: 95668

Airport Operations

Airport use: Private use. Permission required prior to landing
Activation date: 05/1988
Control tower: no
ARTCC: OAKLAND CENTER
FSS: RANCHO MURIETA FLIGHT SERVICE STATION
Attendance: UNATNDD
Wind indicator: yes
Segmented circle: no

Airport Communications

WX ASOS at SMF (9 nm S): PHONE 916-649-3996
WX AWOS-3 at LHM (11 nm NE): 124.25 (916-645-0698)
WX AWOS-3 at MCC (13 nm SE): 125.975 (916-641-1272)
WX ASOS at MYV (15 nm N): 118.475 (530-742-0695)
WX ASOS at SAC (20 nm S): PHONE 916-421-0923

Nearby radio navigation aids

VOR radial/distance  VOR name  Freq  Var
MCCr308/12.7MC CLELLAN VOR/DME109.2017E
MYVr162/15.5MARYSVILLE VOR/DME110.8016E
SACr342/23.8SACRAMENTO VORTAC115.2017E
ILAr105/25.8WILLIAMS VORTAC114.4018E
HNWr263/38.6HANGTOWN VOR/DME115.5017E

Airport Services

Runway Information

Runway 14/32

Dimensions: 2100 x 35 ft. / 640 x 11 m
Surface: asphalt/turf
RUNWAY 14  RUNWAY 32
Traffic pattern: leftleft
Obstructions: none40 ft. pline, marked

Airport Ownership and Management from official FAA records

Ownership: Privately-owned
Owner: JACK SCHEIDEL
1510 W. CATLETT RD
PLEASANT GROVE, CA 95668
Phone (916) 655-3419
Manager: BRETT SCHEIDEL
1510 W. CATLETT RD
PLEASANT GROVE, CA 95668
Phone (916) 665-3419

Airport Operational Statistics

Aircraft based on the field: 4
Single engine airplanes: 4
    

Additional Remarks

FOR CD CTC NORCAL APCH AT 916-361-6874.

Instrument Procedures

There are no published instrument procedures at CA07.

Some nearby airports with instrument procedures:

KSMF - Sacramento International Airport (9 nm S)
KLHM - Lincoln Regional Airport/Karl Harder Field (11 nm NE)
KMCC - Mc Clellan Airfield (13 nm SE)
KMYV - Yuba County Airport (15 nm N)
O41 - Watts-Woodland Airport (18 nm SW)
KBAB - Beale Air Force Base (19 nm N)
KSAC - Sacramento Executive Airport (20 nm S)
 
Loc | Ops | Rwys | IFR | FBO | Links
Com | Nav | Svcs | Stats | Notes
Area around CA07 (Scheidel Ranch Airport)
 
Road maps at: MapQuest Bing Google
 
Aerial photo
No photo
 
Sectional chart

 
Airport distance calculator
Flying to Scheidel Ranch Airport? Find the distance to fly.

From to CA07

Sunrise and sunset
Times for 27-Nov-2022
 Local
(UTC-8)
 Zulu
(UTC)
Morning civil twilight06:3414:34
Sunrise07:0315:03
Sunset16:4500:45
Evening civil twilight17:1401:14

Current date and time
Zulu (UTC)  28-Nov-2022 07:24:14
Local (UTC-8)  27-Nov-2022 23:24:14
 
METAR
KSMF 
9nm S 
280653Z 17004KT 10SM CLR 10/03 A2999 RMK AO2 SLP151 T01000028 $
KLHM 
11nm NE 
280655Z AUTO 07004KT 10SM CLR 04/02 A2998 RMK AO1
KMCC 
13nm SE 
280655Z AUTO 15006KT 10SM CLR 08/03 A2999 RMK AO2
KBAB 
19nm N 
280555Z AUTO 10005KT 10SM CLR 08/03 A2998 RMK AO2 SLP155 T00840028 10162 20065 $
TAF
KSMF 
9nm S 
280521Z 2806/2906 VRB05KT P6SM SCT200 FM281000 VRB03KT 6SM BR SCT150 FM281800 20006KT P6SM SCT120 FM282300 28009KT P6SM BKN100
KMCC 
13nm SE 
280521Z 2806/2906 VRB04KT P6SM SCT200 FM280900 VRB03KT 6SM BR SCT150 FM281800 20006KT P6SM SCT120 FM290000 26006KT P6SM BKN100
NOTAMs
Click for the latest NOTAMs
NOTAMs are issued by the DoD/FAA and will open in a separate window not controlled by AirNav.

 

 
 

Would you like to see your business listed on this page?

 If your business provides an interesting product or service to pilots, flight crews, aircraft, or users of the Scheidel Ranch Airport, you should consider listing it here.  To start the listing process, click on the button below
 
Add a business
 

Other Pages about Scheidel Ranch Airport

Update a link
 
Copyright © AirNav, LLC. All rights reserved. Privacy Policy  Contact